createdAt,value
2016-04-14T00:01:04.251Z,0
2016-04-14T00:02:03.238Z,0
2016-04-14T00:03:03.225Z,0
2016-04-14T00:04:03.899Z,0
2016-04-14T00:05:03.215Z,0
2016-04-14T00:06:03.171Z,0
2016-04-14T00:07:03.205Z,0
2016-04-14T00:08:03.191Z,0
2016-04-14T00:10:03.117Z,0
2016-04-14T00:11:03.166Z,0
2016-04-14T00:12:04.216Z,0
2016-04-14T00:13:03.172Z,0
2016-04-14T00:14:03.799Z,0
2016-04-14T00:15:03.162Z,0
2016-04-14T00:16:03.149Z,0
2016-04-14T00:17:03.151Z,0
2016-04-14T00:18:03.154Z,0
2016-04-14T00:19:03.157Z,0
2016-04-14T00:20:16.879Z,0
2016-04-14T00:21:03.162Z,0
2016-04-14T00:22:03.118Z,0
2016-04-14T00:23:03.137Z,0
2016-04-14T00:24:03.123Z,0
2016-04-14T00:25:03.001Z,0
2016-04-14T00:26:03.128Z,0
2016-04-14T00:27:03.116Z,0
2016-04-14T00:28:03.103Z,0
2016-04-14T00:29:03.105Z,0
2016-04-14T00:30:03.109Z,0
2016-04-14T00:31:03.111Z,0
2016-04-14T00:32:03.097Z,0
2016-04-14T00:33:03.070Z,0
2016-04-14T00:34:03.088Z,0
2016-04-14T00:35:03.075Z,0
2016-04-14T00:36:03.129Z,0
2016-04-14T00:37:02.962Z,0
2016-04-14T00:38:02.340Z,0
2016-04-14T00:39:03.077Z,0
2016-04-14T00:40:03.985Z,0
2016-04-14T00:41:03.066Z,0
2016-04-14T00:42:03.069Z,0
2016-04-14T00:43:03.056Z,0
2016-04-14T00:44:03.043Z,0
2016-04-14T00:45:03.031Z,0
2016-04-14T00:46:03.049Z,0
2016-04-14T00:47:03.021Z,0
2016-04-14T00:48:03.054Z,0
2016-04-14T00:49:03.026Z,0
2016-04-14T00:50:03.045Z,0
2016-04-14T00:51:03.015Z,0
2016-04-14T00:52:03.017Z,0
2016-04-14T00:53:03.006Z,0
2016-04-14T00:54:03.023Z,0
2016-04-14T00:55:02.995Z,0
2016-04-14T00:56:03.013Z,0
2016-04-14T00:57:02.984Z,0
2016-04-14T00:58:02.987Z,0
2016-04-14T00:59:03.005Z,0
2016-04-14T01:00:02.992Z,0
2016-04-14T01:01:02.980Z,0
2016-04-14T01:02:17.576Z,0
2016-04-14T01:03:03.875Z,0
2016-04-14T01:04:02.988Z,0
2016-04-14T01:05:02.990Z,0
2016-04-14T01:06:02.978Z,0
2016-04-14T01:07:03.496Z,0
2016-04-14T01:08:02.952Z,0
2016-04-14T01:09:03.251Z,0
2016-04-14T01:10:02.973Z,0
2016-04-14T01:11:03.101Z,0
2016-04-14T01:12:02.946Z,0
2016-04-14T01:13:03.340Z,0
2016-04-14T01:14:02.937Z,0
2016-04-14T01:15:03.626Z,0
2016-04-14T01:16:03.567Z,0
2016-04-14T01:17:03.320Z,0
2016-04-14T01:18:04.529Z,0
2016-04-14T01:19:04.694Z,0
2016-04-14T01:20:02.916Z,0
2016-04-14T01:21:03.340Z,0
2016-04-14T01:22:03.296Z,0
2016-04-14T01:23:03.470Z,0
2016-04-14T01:24:03.880Z,0
2016-04-14T01:25:02.929Z,0
2016-04-14T01:26:02.885Z,0
2016-04-14T01:27:02.888Z,0
2016-04-14T01:28:04.608Z,0
2016-04-14T01:29:04.268Z,0
2016-04-14T01:30:03.505Z,0
2016-04-14T01:31:04.054Z,0
2016-04-14T01:32:02.995Z,0
2016-04-14T01:33:02.701Z,0
2016-04-14T01:34:03.079Z,0
2016-04-14T01:35:02.877Z,0
2016-04-14T01:36:02.865Z,0
2016-04-14T01:37:02.883Z,0
2016-04-14T01:38:02.917Z,0
2016-04-14T01:39:02.842Z,0
2016-04-14T01:40:02.845Z,0
2016-04-14T01:41:02.862Z,0
2016-04-14T01:42:02.850Z,0
2016-04-14T01:43:02.853Z,0
2016-04-14T01:44:02.824Z,0
2016-04-14T01:45:02.842Z,0
2016-04-14T01:46:02.829Z,0
2016-04-14T01:47:02.800Z,0
2016-04-14T01:48:02.819Z,0
2016-04-14T01:49:02.822Z,0
2016-04-14T01:50:02.809Z,0
2016-04-14T01:51:02.811Z,0
2016-04-14T01:52:02.814Z,0
2016-04-14T01:53:02.801Z,0
2016-04-14T01:54:02.803Z,0
2016-04-14T01:55:02.806Z,0
2016-04-14T01:56:02.777Z,0
2016-04-14T01:57:02.797Z,0
2016-04-14T01:58:02.799Z,0
2016-04-14T01:59:02.817Z,0
2016-04-14T02:00:02.758Z,0
2016-04-14T02:01:02.776Z,0
2016-04-14T02:02:02.747Z,0
2016-04-14T02:03:02.766Z,0
2016-04-14T02:04:02.752Z,0
2016-04-14T02:05:02.771Z,0
2016-04-14T02:06:02.773Z,0
2016-04-14T02:07:02.745Z,0
2016-04-14T02:08:02.763Z,0
2016-04-14T02:09:02.735Z,0
2016-04-14T02:10:02.753Z,0
2016-04-14T02:11:02.740Z,0
2016-04-14T02:12:02.742Z,0
2016-04-14T02:13:02.729Z,0
2016-04-14T02:14:02.732Z,0
2016-04-14T02:15:02.720Z,0
2016-04-14T02:16:02.738Z,0
2016-04-14T02:17:02.710Z,0
2016-04-14T02:18:02.712Z,0
2016-04-14T02:19:02.714Z,0
2016-04-14T02:20:02.703Z,0
2016-04-14T02:21:03.767Z,0
2016-04-14T02:22:02.708Z,0
2016-04-14T02:23:03.148Z,0
2016-04-14T02:24:03.197Z,0
2016-04-14T02:25:02.825Z,0
2016-04-14T02:26:02.686Z,0
2016-04-14T02:27:02.658Z,0
2016-04-14T02:28:02.785Z,0
2016-04-14T02:29:02.664Z,0
2016-04-14T02:30:03.822Z,0
2016-04-14T02:31:04.559Z,0
2016-04-14T02:32:04.063Z,0
2016-04-14T02:33:02.908Z,0
2016-04-14T02:34:03.349Z,0
2016-04-14T02:35:03.399Z,0
2016-04-14T02:36:02.948Z,0
2016-04-14T02:37:04.607Z,0
2016-04-14T02:38:03.157Z,0
2016-04-14T02:39:03.628Z,0
2016-04-14T02:40:03.771Z,0
2016-04-14T02:41:02.868Z,0
2016-04-14T02:42:03.370Z,0
2016-04-14T02:43:02.623Z,0
2016-04-14T02:44:02.610Z,0
2016-04-14T02:45:02.581Z,0
2016-04-14T02:46:02.647Z,0
2016-04-14T02:47:03.228Z,0
2016-04-14T02:48:02.589Z,0
2016-04-14T02:49:03.873Z,0
2016-04-14T02:50:02.595Z,0
2016-04-14T02:51:02.097Z,0
2016-04-14T02:52:02.835Z,0
2016-04-14T02:53:02.681Z,0
2016-04-14T02:54:02.544Z,0
2016-04-14T02:55:02.561Z,0
2016-04-14T02:56:02.580Z,0
2016-04-14T02:57:02.536Z,0
2016-04-14T02:58:02.554Z,0
2016-04-14T02:59:02.557Z,0
2016-04-14T03:00:02.560Z,0
2016-04-14T03:01:02.516Z,0
2016-04-14T03:02:02.533Z,0
2016-04-14T03:03:02.505Z,0
2016-04-14T03:04:02.507Z,0
2016-04-14T03:05:02.495Z,0
2016-04-14T03:06:02.513Z,0
2016-04-14T03:07:02.499Z,0
2016-04-14T03:08:02.503Z,0
2016-04-14T03:09:02.474Z,0
2016-04-14T03:10:02.508Z,0
2016-04-14T03:11:02.479Z,0
2016-04-14T03:12:02.482Z,0
2016-04-14T03:13:02.453Z,0
2016-04-14T03:14:02.473Z,0
2016-04-14T03:15:02.459Z,0
2016-04-14T03:16:02.477Z,0
2016-04-14T03:17:02.449Z,0
2016-04-14T03:18:02.451Z,0
2016-04-14T03:19:02.423Z,0
2016-04-14T03:20:02.442Z,0
2016-04-14T03:21:02.428Z,0
2016-04-14T03:22:02.462Z,0
2016-04-14T03:23:02.434Z,0
2016-04-14T03:24:02.436Z,0
2016-04-14T03:25:02.392Z,0
2016-04-14T03:26:02.395Z,0
2016-04-14T03:27:02.428Z,0
2016-04-14T03:28:02.401Z,0
2016-04-14T03:29:02.403Z,0
2016-04-14T03:30:02.375Z,0
2016-04-14T03:31:02.408Z,0
2016-04-14T03:32:02.364Z,0
2016-04-14T03:33:02.383Z,0
2016-04-14T03:34:02.369Z,4
2016-04-14T03:35:02.372Z,8
2016-04-14T03:36:02.359Z,8
2016-04-14T03:37:02.362Z,12
2016-04-14T03:38:02.365Z,8
2016-04-14T03:39:02.352Z,8
2016-04-14T03:40:02.354Z,8
2016-04-14T03:41:03.373Z,8
2016-04-14T03:42:16.516Z,12
2016-04-14T03:44:02.865Z,12
2016-04-14T03:45:02.431Z,12
2016-04-14T03:46:02.323Z,12
2016-04-14T03:47:02.312Z,8
2016-04-14T03:48:02.298Z,12
2016-04-14T03:49:02.691Z,12
2016-04-14T03:50:02.960Z,12
2016-04-14T03:51:02.290Z,16
2016-04-14T03:52:16.528Z,16
2016-04-14T03:53:02.280Z,20
2016-04-14T03:54:02.283Z,16
2016-04-14T03:55:02.754Z,20
2016-04-14T03:56:03.070Z,12
2016-04-14T03:57:04.150Z,12
2016-04-14T03:58:02.277Z,16
2016-04-14T03:59:03.374Z,24
2016-04-14T04:00:03.033Z,24
2016-04-14T04:01:02.411Z,28
2016-04-14T04:02:02.241Z,28
2016-04-14T04:03:02.229Z,36
2016-04-14T04:04:02.247Z,32
2016-04-14T04:06:04.330Z,32
2016-04-14T04:07:03.161Z,36
2016-04-14T04:08:02.226Z,44
2016-04-14T04:09:02.214Z,48
2016-04-14T04:10:02.201Z,48
2016-04-14T04:11:02.500Z,52
2016-04-14T04:12:02.394Z,60
2016-04-14T04:13:02.396Z,60
2016-04-14T04:14:02.196Z,64
2016-04-14T04:15:02.183Z,68
2016-04-14T04:16:02.154Z,72
2016-04-14T04:17:02.173Z,76
2016-04-14T04:18:02.145Z,80
2016-04-14T04:19:02.162Z,84
2016-04-14T04:20:02.165Z,84
2016-04-14T04:21:02.153Z,92
2016-04-14T04:22:02.140Z,96
2016-04-14T04:23:02.158Z,108
2016-04-14T04:24:02.129Z,112
2016-04-14T04:25:02.116Z,124
2016-04-14T04:26:02.197Z,136
2016-04-14T04:27:02.122Z,144
2016-04-14T04:28:02.109Z,156
2016-04-14T04:29:02.111Z,168
2016-04-14T04:30:02.097Z,180
2016-04-14T04:31:02.101Z,200
2016-04-14T04:32:02.088Z,216
2016-04-14T04:33:02.091Z,236
2016-04-14T04:34:01.344Z,280
2016-04-14T04:35:02.080Z,312
2016-04-14T04:36:02.068Z,368
2016-04-14T04:37:02.086Z,436
2016-04-14T04:38:02.088Z,504
2016-04-14T04:39:02.060Z,556
2016-04-14T04:40:02.046Z,588
2016-04-14T04:41:02.252Z,616
2016-04-14T04:42:01.302Z,616
2016-04-14T04:43:02.055Z,672
2016-04-14T04:44:02.042Z,636
2016-04-14T04:45:02.029Z,628
2016-04-14T04:46:02.032Z,604
2016-04-14T04:47:02.003Z,620
2016-04-14T04:48:02.037Z,792
2016-04-14T04:49:02.009Z,804
2016-04-14T04:50:02.011Z,752
2016-04-14T04:51:01.998Z,840
2016-04-14T04:52:02.001Z,836
2016-04-14T04:53:01.989Z,1020
2016-04-14T04:54:01.975Z,984
2016-04-14T04:55:01.994Z,956
2016-04-14T04:56:02.090Z,932
2016-04-14T04:57:01.952Z,876
2016-04-14T04:58:01.970Z,720
2016-04-14T04:59:03.113Z,576
2016-04-14T05:00:01.960Z,632
2016-04-14T05:01:01.932Z,676
2016-04-14T05:02:01.950Z,792
2016-04-14T05:03:02.405Z,1016
2016-04-14T05:04:02.097Z,1380
2016-04-14T05:05:01.927Z,1552
2016-04-14T05:06:01.930Z,1600
2016-04-14T05:07:01.916Z,1888
2016-04-14T05:08:03.529Z,1936
2016-04-14T05:09:01.906Z,1776
2016-04-14T05:10:02.722Z,1884
2016-04-14T05:11:01.943Z,2012
2016-04-14T05:12:02.055Z,2056
2016-04-14T05:13:01.916Z,2116
2016-04-14T05:14:01.932Z,2188
2016-04-14T05:16:02.198Z,2324
2016-04-14T05:17:02.183Z,2412
2016-04-14T05:18:02.079Z,2448
2016-04-14T05:19:02.474Z,2400
2016-04-14T05:20:02.305Z,2380
2016-04-14T05:21:02.121Z,2452
2016-04-14T05:22:02.155Z,2512
2016-04-14T05:23:02.171Z,2668
2016-04-14T05:24:04.367Z,2772
2016-04-14T05:25:03.250Z,3108
2016-04-14T05:26:02.102Z,3204
2016-04-14T05:27:02.673Z,3348
2016-04-14T05:28:02.494Z,3352
2016-04-14T05:29:02.155Z,3300
2016-04-14T05:30:02.128Z,3048
2016-04-14T05:31:02.509Z,2940
2016-04-14T05:32:02.217Z,2940
2016-04-14T05:33:02.158Z,2696
2016-04-14T05:34:02.130Z,2752
2016-04-14T05:35:02.150Z,2628
2016-04-14T05:36:02.107Z,2556
2016-04-14T05:37:02.157Z,2284
2016-04-14T05:38:02.097Z,2236
2016-04-14T05:39:02.100Z,2224
2016-04-14T05:40:02.103Z,2116
2016-04-14T05:41:02.293Z,2020
2016-04-14T05:42:02.108Z,1972
2016-04-14T05:43:02.095Z,2316
2016-04-14T05:44:02.082Z,2532
2016-04-14T05:45:02.085Z,2348
2016-04-14T05:46:02.072Z,2256
2016-04-14T05:47:02.107Z,2056
2016-04-14T05:48:02.062Z,1916
2016-04-14T05:49:02.080Z,2028
2016-04-14T05:50:01.349Z,1960
2016-04-14T05:51:02.085Z,1872
2016-04-14T05:52:02.041Z,1640
2016-04-14T05:53:02.060Z,1668
2016-04-14T05:54:02.031Z,1856
2016-04-14T05:55:02.034Z,1944
2016-04-14T05:56:02.083Z,1952
2016-04-14T05:57:02.039Z,1936
2016-04-14T05:58:02.042Z,1948
2016-04-14T05:59:02.029Z,1996
2016-04-14T06:00:02.001Z,2084
2016-04-14T06:01:02.019Z,2196
2016-04-14T06:02:02.022Z,2320
2016-04-14T06:03:01.993Z,2440
2016-04-14T06:04:01.995Z,2536
2016-04-14T06:05:02.014Z,2652
2016-04-14T06:06:02.000Z,2804
2016-04-14T06:07:01.972Z,2960
2016-04-14T06:08:01.990Z,3080
2016-04-14T06:09:01.993Z,3124
2016-04-14T06:10:01.996Z,3136
2016-04-14T06:11:01.982Z,2956
2016-04-14T06:12:01.969Z,2324
2016-04-14T06:13:01.988Z,1756
2016-04-14T06:14:01.959Z,1596
2016-04-14T06:15:01.946Z,1888
2016-04-14T06:16:01.934Z,2160
2016-04-14T06:17:01.952Z,2080
2016-04-14T06:18:03.767Z,2012
2016-04-14T06:19:02.068Z,2044
2016-04-14T06:20:01.945Z,2028
2016-04-14T06:21:01.916Z,1904
2016-04-14T06:22:02.137Z,1600
2016-04-14T06:23:01.921Z,1332
2016-04-14T06:24:01.924Z,1276
2016-04-14T06:25:01.927Z,1560
2016-04-14T06:26:01.899Z,1832
2016-04-14T06:27:03.401Z,1680
2016-04-14T06:28:02.998Z,1532
2016-04-14T06:29:01.891Z,1404
2016-04-14T06:30:02.112Z,1440
2016-04-14T06:31:02.068Z,1516
2016-04-14T06:32:01.914Z,1388
2016-04-14T06:33:01.855Z,1444
2016-04-14T06:35:01.860Z,1224
2016-04-14T06:36:01.863Z,1204
2016-04-14T06:37:02.880Z,1260
2016-04-14T06:38:01.836Z,1052
2016-04-14T06:39:02.402Z,1020
2016-04-14T06:40:01.858Z,948
2016-04-14T06:41:01.830Z,1164
2016-04-14T06:42:01.832Z,1228
2016-04-14T06:44:03.259Z,1308
2016-04-14T06:45:01.808Z,1356
2016-04-14T06:46:02.249Z,1716
2016-04-14T06:47:01.846Z,1864
2016-04-14T06:48:01.801Z,2168
2016-04-14T06:49:01.788Z,2440
2016-04-14T06:50:01.775Z,2616
2016-04-14T06:51:01.949Z,2620
2016-04-14T06:52:01.796Z,2688
2016-04-14T06:53:01.784Z,2592
2016-04-14T06:54:01.755Z,2764
2016-04-14T06:55:01.789Z,2908
2016-04-14T06:56:01.760Z,2768
2016-04-14T06:57:01.763Z,2332
2016-04-14T06:58:01.734Z,2272
2016-04-14T06:59:01.754Z,2412
2016-04-14T07:00:01.724Z,2476
2016-04-14T07:01:01.759Z,2340
2016-04-14T07:02:01.715Z,2620
2016-04-14T07:03:01.717Z,2676
2016-04-14T07:04:01.752Z,2520
2016-04-14T07:05:01.723Z,2476
2016-04-14T07:06:01.710Z,2544
2016-04-14T07:07:01.740Z,2620
2016-04-14T07:08:01.742Z,2656
2016-04-14T07:09:01.723Z,2608
2016-04-14T07:10:01.538Z,2772
2016-04-14T07:11:01.545Z,2980
2016-04-14T07:12:01.675Z,3224
2016-04-14T07:13:01.677Z,3180
2016-04-14T07:14:01.516Z,3020
2016-04-14T07:15:01.675Z,2920
2016-04-14T07:16:01.506Z,2600
2016-04-14T07:17:01.538Z,2672
2016-04-14T07:18:01.726Z,2776
2016-04-14T07:19:01.666Z,2988
2016-04-14T07:20:01.638Z,2944
2016-04-14T07:21:01.640Z,2684
2016-04-14T07:22:01.674Z,3032
2016-04-14T07:23:01.629Z,3284
2016-04-14T07:24:01.617Z,3428
2016-04-14T07:25:01.604Z,3520
2016-04-14T07:26:01.622Z,3260
2016-04-14T07:27:01.812Z,3092
2016-04-14T07:28:01.470Z,3036
2016-04-14T07:29:01.598Z,3240
2016-04-14T07:30:01.586Z,3460
2016-04-14T07:31:01.604Z,3840
2016-04-14T07:32:01.575Z,4044
2016-04-14T07:33:01.609Z,4200
2016-04-14T07:34:01.565Z,4812
2016-04-14T07:35:01.583Z,4744
2016-04-14T07:36:01.570Z,4416
2016-04-14T07:37:02.917Z,4068
2016-04-14T07:38:02.811Z,3892
2016-04-14T07:39:16.345Z,3868
2016-04-14T07:40:01.895Z,3964
2016-04-14T07:41:01.991Z,4188
2016-04-14T07:42:01.525Z,4528
2016-04-14T07:43:01.527Z,4976
2016-04-14T07:44:01.530Z,6012
2016-04-14T07:45:01.517Z,6404
2016-04-14T07:46:02.972Z,6480
2016-04-14T07:47:02.257Z,6512
2016-04-14T07:48:30.821Z,6168
2016-04-14T07:49:01.512Z,6148
2016-04-14T07:51:01.798Z,5800
2016-04-14T07:52:01.489Z,4620
2016-04-14T07:53:01.585Z,4184
2016-04-14T07:54:01.463Z,4548
2016-04-14T07:55:01.482Z,5064
2016-04-14T07:56:02.218Z,5136
2016-04-14T07:57:02.096Z,6160
2016-04-14T07:58:01.442Z,6044
2016-04-14T07:59:01.461Z,5568
2016-04-14T08:00:01.463Z,5908
2016-04-14T08:01:01.497Z,6592
2016-04-14T08:02:01.937Z,7720
2016-04-14T08:03:03.753Z,9824
2016-04-14T08:04:01.646Z,10972
2016-04-14T08:05:02.008Z,11492
2016-04-14T08:06:01.417Z,10468
2016-04-14T08:07:01.983Z,9512
2016-04-14T08:08:01.406Z,10100
2016-04-14T08:09:01.422Z,10556
2016-04-14T08:10:01.231Z,10948
2016-04-14T08:11:01.406Z,10032
2016-04-14T08:12:01.392Z,9096
2016-04-14T08:13:01.379Z,10216
2016-04-14T08:14:01.367Z,10340
2016-04-14T08:15:01.400Z,13092
2016-04-14T08:16:01.372Z,12868
2016-04-14T08:17:01.375Z,13588
2016-04-14T08:18:01.206Z,13792
2016-04-14T08:19:01.208Z,15724
2016-04-14T08:20:01.352Z,17568
2016-04-14T08:21:01.369Z,17344
2016-04-14T08:22:01.357Z,15460
2016-04-14T08:23:01.344Z,14004
2016-04-14T08:24:01.346Z,12044
2016-04-14T08:25:01.333Z,9724
2016-04-14T08:26:01.335Z,8256
2016-04-14T08:27:01.354Z,8268
2016-04-14T08:28:01.310Z,8228
2016-04-14T08:29:01.313Z,7672
2016-04-14T08:30:01.316Z,7704
2016-04-14T08:31:01.318Z,7768
2016-04-14T08:32:01.305Z,7332
2016-04-14T08:33:01.371Z,8280
2016-04-14T08:34:01.295Z,9496
2016-04-14T08:35:01.313Z,9340
2016-04-14T08:36:01.284Z,9168
2016-04-14T08:37:01.139Z,12088
2016-04-14T08:38:01.814Z,12756
2016-04-14T08:39:01.332Z,12404
2016-04-14T08:40:01.288Z,11336
2016-04-14T08:41:01.275Z,11116
2016-04-14T08:42:01.262Z,12012
2016-04-14T08:43:01.265Z,13836
2016-04-14T08:44:01.283Z,15068
2016-04-14T08:45:01.301Z,15744
2016-04-14T08:46:01.272Z,15384
2016-04-14T08:47:01.260Z,15324
2016-04-14T08:48:01.247Z,15308
2016-04-14T08:49:01.265Z,14464
2016-04-14T08:50:01.268Z,14496
2016-04-14T08:51:00.973Z,16480
2016-04-14T08:52:01.226Z,16448
2016-04-14T08:53:01.088Z,14140
2016-04-14T08:54:01.232Z,13892
2016-04-14T08:55:01.907Z,14772
2016-04-14T08:56:15.424Z,13880
2016-04-14T08:57:02.521Z,14812
2016-04-14T08:58:01.742Z,18528
2016-04-14T08:59:02.104Z,22016
2016-04-14T09:00:01.685Z,24128
2016-04-14T09:01:01.204Z,24640
2016-04-14T09:02:01.222Z,21952
2016-04-14T09:03:01.225Z,23072
2016-04-14T09:04:01.212Z,22240
2016-04-14T09:05:02.590Z,21152
2016-04-14T09:06:01.312Z,21344
2016-04-14T09:07:01.907Z,21024
2016-04-14T09:08:01.848Z,23296
2016-04-14T09:09:01.225Z,24032
2016-04-14T09:10:01.634Z,24128
2016-04-14T09:11:01.792Z,23712
2016-04-14T09:12:01.952Z,23744
2016-04-14T09:13:01.595Z,22880
2016-04-14T09:14:01.207Z,20224
2016-04-14T09:15:01.882Z,18176
2016-04-14T09:16:01.478Z,17280
2016-04-14T09:17:01.403Z,16640
2016-04-14T09:18:01.187Z,15700
2016-04-14T09:19:01.205Z,14880
2016-04-14T09:20:01.192Z,14968
2016-04-14T09:21:02.710Z,14048
2016-04-14T09:22:01.229Z,14380
2016-04-14T09:23:01.684Z,15168
2016-04-14T09:24:01.702Z,16448
2016-04-14T09:25:01.190Z,18048
2016-04-14T09:26:01.161Z,19712
2016-04-14T09:27:01.320Z,20192
2016-04-14T09:28:01.464Z,21568
2016-04-14T09:29:01.169Z,21984
2016-04-14T09:30:01.188Z,21664
2016-04-14T09:31:01.174Z,20448
2016-04-14T09:32:01.162Z,19072
2016-04-14T09:33:01.165Z,18368
2016-04-14T09:34:01.136Z,17088
2016-04-14T09:35:01.154Z,13596
2016-04-14T09:36:01.142Z,11324
2016-04-14T09:37:01.191Z,10228
2016-04-14T09:38:01.132Z,10544
2016-04-14T09:39:01.150Z,10392
2016-04-14T09:40:01.168Z,9784
2016-04-14T09:41:01.155Z,9808
2016-04-14T09:42:01.173Z,9660
2016-04-14T09:43:01.175Z,9388
2016-04-14T09:44:01.131Z,10392
2016-04-14T09:45:01.150Z,12468
2016-04-14T09:46:01.136Z,11844
2016-04-14T09:47:01.155Z,11696
2016-04-14T09:48:01.142Z,9708
2016-04-14T09:49:01.161Z,8676
2016-04-14T09:50:01.147Z,7524
2016-04-14T09:51:01.135Z,6944
2016-04-14T09:52:01.153Z,6444
2016-04-14T09:53:01.140Z,6308
2016-04-14T09:54:01.127Z,7016
2016-04-14T09:55:01.145Z,7216
2016-04-14T09:56:01.148Z,6928
2016-04-14T09:57:01.354Z,8188
2016-04-14T09:58:01.122Z,8524
2016-04-14T09:59:01.140Z,7172
2016-04-14T10:00:01.112Z,6964
2016-04-14T10:01:01.146Z,7584
2016-04-14T10:02:01.102Z,7932
2016-04-14T10:03:01.120Z,8348
2016-04-14T10:04:01.107Z,9268
2016-04-14T10:05:01.110Z,9980
2016-04-14T10:06:01.112Z,10460
2016-04-14T10:07:01.101Z,12632
2016-04-14T10:08:01.103Z,13832
2016-04-14T10:09:01.090Z,11692
2016-04-14T10:10:01.093Z,8452
2016-04-14T10:11:01.111Z,8004
2016-04-14T10:12:01.192Z,7220
2016-04-14T10:13:01.100Z,6480
2016-04-14T10:14:01.494Z,7352
2016-04-14T10:15:01.949Z,8372
2016-04-14T10:16:01.186Z,9732
2016-04-14T10:17:02.345Z,11380
2016-04-14T10:18:01.067Z,13064
2016-04-14T10:19:01.086Z,14188
2016-04-14T10:20:01.135Z,14756
2016-04-14T10:21:01.091Z,14880
2016-04-14T10:22:01.077Z,14120
2016-04-14T10:23:01.080Z,12796
2016-04-14T10:24:15.317Z,10960
2016-04-14T10:25:01.866Z,10452
2016-04-14T10:26:01.072Z,10504
2016-04-14T10:27:01.512Z,10984
2016-04-14T10:28:01.827Z,11368
2016-04-14T10:29:01.065Z,11160
2016-04-14T10:30:02.787Z,10612
2016-04-14T10:31:02.508Z,10120
2016-04-14T10:32:01.854Z,9872
2016-04-14T10:33:01.076Z,9740
2016-04-14T10:34:01.985Z,9472
2016-04-14T10:35:01.690Z,8840
2016-04-14T10:36:01.069Z,8304
2016-04-14T10:37:01.056Z,8336
2016-04-14T10:38:01.043Z,8640
2016-04-14T10:39:01.046Z,8732
2016-04-14T10:40:02.751Z,8068
2016-04-14T10:41:01.676Z,7984
2016-04-14T10:42:01.756Z,8172
2016-04-14T10:43:01.572Z,7904
2016-04-14T10:44:01.042Z,7304
2016-04-14T10:45:01.343Z,6816
2016-04-14T10:46:01.939Z,6428
2016-04-14T10:47:01.036Z,6104
2016-04-14T10:48:01.039Z,5744
2016-04-14T10:49:01.056Z,5460
2016-04-14T10:50:01.028Z,5524
2016-04-14T10:51:01.046Z,5860
2016-04-14T10:52:01.033Z,5756
2016-04-14T10:53:01.035Z,5624
2016-04-14T10:54:01.022Z,5292
2016-04-14T10:55:01.041Z,5164
2016-04-14T10:56:01.028Z,5056
2016-04-14T10:57:01.125Z,4988
2016-04-14T10:58:01.033Z,4796
2016-04-14T10:59:01.021Z,4932
2016-04-14T11:00:01.038Z,4728
2016-04-14T11:01:00.995Z,4480
2016-04-14T11:02:00.998Z,4280
2016-04-14T11:03:00.876Z,4208
2016-04-14T11:04:01.035Z,4228
2016-04-14T11:05:01.038Z,4480
2016-04-14T11:06:01.009Z,4860
2016-04-14T11:07:01.012Z,5320
2016-04-14T11:08:02.951Z,5528
2016-04-14T11:09:01.001Z,5844
2016-04-14T11:10:00.988Z,5972
2016-04-14T11:11:00.850Z,5352
2016-04-14T11:12:01.025Z,5024
2016-04-14T11:13:00.995Z,4876
2016-04-14T11:14:00.968Z,4624
2016-04-14T11:15:01.001Z,4432
2016-04-14T11:16:01.004Z,4304
2016-04-14T11:17:00.991Z,4272
2016-04-14T11:18:00.994Z,4252
2016-04-14T11:19:00.731Z,4224
2016-04-14T11:20:00.967Z,4420
2016-04-14T11:21:00.970Z,4480
2016-04-14T11:22:00.957Z,4484
2016-04-14T11:23:00.991Z,4624
2016-04-14T11:24:00.947Z,5028
2016-04-14T11:25:00.966Z,5908
2016-04-14T11:26:00.938Z,6452
2016-04-14T11:27:00.971Z,7008
2016-04-14T11:28:00.958Z,7048
2016-04-14T11:29:00.960Z,7808
2016-04-14T11:30:00.932Z,10012
2016-04-14T11:31:00.951Z,12220
2016-04-14T11:32:00.938Z,13044
2016-04-14T11:33:01.050Z,11600
2016-04-14T11:34:01.099Z,10200
2016-04-14T11:35:00.945Z,9820
2016-04-14T11:36:01.089Z,8256
2016-04-14T11:37:15.122Z,6936
2016-04-14T11:38:01.390Z,6616
2016-04-14T11:39:00.924Z,6536
2016-04-14T11:40:01.333Z,6160
2016-04-14T11:41:01.070Z,5568
2016-04-14T11:42:00.948Z,5768
2016-04-14T11:43:01.170Z,8316
2016-04-14T11:44:01.828Z,13380
2016-04-14T11:45:01.769Z,18208
2016-04-14T11:46:00.927Z,20480
2016-04-14T11:47:01.211Z,20832
2016-04-14T11:48:00.917Z,20384
2016-04-14T11:50:03.068Z,19520
2016-04-14T11:51:01.993Z,20416
2016-04-14T11:52:00.918Z,21216
2016-04-14T11:53:01.076Z,21088
2016-04-14T11:54:00.891Z,20704
2016-04-14T11:55:01.301Z,19488
2016-04-14T11:56:01.162Z,19264
2016-04-14T11:57:01.087Z,19648
2016-04-14T11:58:00.901Z,21824
2016-04-14T11:59:01.451Z,21440
2016-04-14T12:00:02.001Z,21472
2016-04-14T12:01:01.770Z,19296
2016-04-14T12:02:01.304Z,17088
2016-04-14T12:03:01.869Z,14312
2016-04-14T12:04:01.528Z,12668
2016-04-14T12:05:00.967Z,11776
2016-04-14T12:06:00.892Z,10848
2016-04-14T12:07:00.911Z,10296
2016-04-14T12:08:00.882Z,9560
2016-04-14T12:09:00.947Z,10828
2016-04-14T12:10:00.918Z,9308
2016-04-14T12:11:00.906Z,6736
2016-04-14T12:12:00.877Z,5112
2016-04-14T12:13:00.192Z,4008
2016-04-14T12:14:00.898Z,3580
2016-04-14T12:15:00.901Z,4280
2016-04-14T12:16:00.888Z,5260
2016-04-14T12:17:00.891Z,5976
2016-04-14T12:18:00.878Z,7232
2016-04-14T12:19:00.912Z,8156
2016-04-14T12:20:00.883Z,8420
2016-04-14T12:21:00.885Z,9708
2016-04-14T12:22:00.888Z,11088
2016-04-14T12:23:00.907Z,10176
2016-04-14T12:24:00.878Z,7652
2016-04-14T12:25:00.896Z,6308
2016-04-14T12:26:00.884Z,6644
2016-04-14T12:27:00.886Z,7656
2016-04-14T12:28:00.874Z,7076
2016-04-14T12:29:00.876Z,6136
2016-04-14T12:30:00.879Z,5996
2016-04-14T12:31:00.897Z,5596
2016-04-14T12:32:00.915Z,5040
2016-04-14T12:33:00.887Z,4892
2016-04-14T12:34:00.889Z,5532
2016-04-14T12:35:00.876Z,6064
2016-04-14T12:36:00.925Z,7856
2016-04-14T12:37:00.897Z,8908
2016-04-14T12:38:00.869Z,10932
2016-04-14T12:39:00.872Z,12224
2016-04-14T12:40:00.859Z,14068
2016-04-14T12:41:00.877Z,15616
2016-04-14T12:42:00.849Z,14920
2016-04-14T12:43:00.866Z,13996
2016-04-14T12:44:00.869Z,12612
2016-04-14T12:45:00.857Z,10800
2016-04-14T12:46:00.875Z,9756
2016-04-14T12:47:00.878Z,9484
2016-04-14T12:48:00.880Z,10852
2016-04-14T12:49:00.852Z,14364
2016-04-14T12:50:00.870Z,17248
2016-04-14T12:51:00.841Z,18784
2016-04-14T12:52:00.859Z,19296
2016-04-14T12:53:02.440Z,18432
2016-04-14T12:54:01.568Z,17952
2016-04-14T12:55:01.712Z,19104
2016-04-14T12:56:01.371Z,20096
2016-04-14T12:57:01.311Z,20704
2016-04-14T12:58:01.048Z,20864
2016-04-14T12:59:00.832Z,20096
2016-04-14T13:00:00.850Z,20960
2016-04-14T13:01:00.853Z,20224
2016-04-14T13:02:00.839Z,19456
2016-04-14T13:03:00.842Z,20288
2016-04-14T13:04:00.845Z,21088
2016-04-14T13:05:15.019Z,20416
2016-04-14T13:06:00.851Z,19040
2016-04-14T13:07:01.197Z,16384
2016-04-14T13:08:01.294Z,14032
2016-04-14T13:09:00.953Z,12512
2016-04-14T13:10:02.380Z,9696
2016-04-14T13:11:00.882Z,7560
2016-04-14T13:12:00.928Z,6904
2016-04-14T13:13:01.476Z,6872
2016-04-14T13:14:00.839Z,7200
2016-04-14T13:15:00.842Z,8144
2016-04-14T13:16:00.844Z,8740
2016-04-14T13:17:00.831Z,8192
2016-04-14T13:18:02.239Z,8008
2016-04-14T13:19:02.367Z,7732
2016-04-14T13:20:01.886Z,7292
2016-04-14T13:21:00.982Z,6492
2016-04-14T13:22:01.158Z,5668
2016-04-14T13:23:01.441Z,5256
2016-04-14T13:24:01.022Z,4616
2016-04-14T13:25:00.869Z,4612
2016-04-14T13:26:00.841Z,5192
2016-04-14T13:27:00.858Z,5576
2016-04-14T13:28:00.830Z,5440
2016-04-14T13:29:00.660Z,5552
2016-04-14T13:30:00.835Z,6244
2016-04-14T13:31:00.821Z,7720
2016-04-14T13:32:00.825Z,8696
2016-04-14T13:33:00.812Z,8972
2016-04-14T13:34:00.830Z,8272
2016-04-14T13:35:00.802Z,7496
2016-04-14T13:36:00.835Z,7616
2016-04-14T13:37:00.807Z,8252
2016-04-14T13:38:00.809Z,8840
2016-04-14T13:39:00.796Z,9472
2016-04-14T13:40:00.815Z,10472
2016-04-14T13:41:00.787Z,11892
2016-04-14T13:42:00.837Z,13636
2016-04-14T13:43:00.807Z,15124
2016-04-14T13:44:00.810Z,16288
2016-04-14T13:45:00.797Z,16928
2016-04-14T13:46:00.800Z,17248
2016-04-14T13:47:00.802Z,17440